sensor_id;sensor_type;location;lat;lon;timestamp;P1;durP1;ratioP1;P2;durP2;ratioP2
62832;SDS011;48891;49.220;6.920;2023-09-30T00:01:09;26.10;;;21.13;;
62832;SDS011;48891;49.220;6.920;2023-09-30T00:03:35;26.35;;;22.17;;
62832;SDS011;48891;49.220;6.920;2023-09-30T00:06:00;27.70;;;21.80;;
62832;SDS011;48891;49.220;6.920;2023-09-30T00:08:25;27.65;;;22.88;;
62832;SDS011;48891;49.220;6.920;2023-09-30T00:10:50;28.40;;;22.73;;
62832;SDS011;48891;49.220;6.920;2023-09-30T00:13:15;27.20;;;22.23;;
62832;SDS011;48891;49.220;6.920;2023-09-30T00:15:40;27.83;;;23.40;;
62832;SDS011;48891;49.220;6.920;2023-09-30T00:18:05;29.23;;;25.13;;
62832;SDS011;48891;49.220;6.920;2023-09-30T00:20:30;29.20;;;23.77;;
62832;SDS011;48891;49.220;6.920;2023-09-30T00:22:56;29.23;;;24.00;;
62832;SDS011;48891;49.220;6.920;2023-09-30T00:25:21;31.05;;;24.23;;
62832;SDS011;48891;49.220;6.920;2023-09-30T00:27:47;31.75;;;25.17;;
62832;SDS011;48891;49.220;6.920;2023-09-30T00:30:12;30.52;;;25.00;;
62832;SDS011;48891;49.220;6.920;2023-09-30T00:32:37;33.58;;;27.25;;
62832;SDS011;48891;49.220;6.920;2023-09-30T00:35:02;33.20;;;26.38;;
62832;SDS011;48891;49.220;6.920;2023-09-30T00:37:27;32.75;;;27.58;;
62832;SDS011;48891;49.220;6.920;2023-09-30T00:39:53;32.00;;;26.60;;
62832;SDS011;48891;49.220;6.920;2023-09-30T00:42:18;33.35;;;26.90;;
62832;SDS011;48891;49.220;6.920;2023-09-30T00:44:43;33.63;;;28.25;;
62832;SDS011;48891;49.220;6.920;2023-09-30T00:47:08;32.13;;;26.80;;
62832;SDS011;48891;49.220;6.920;2023-09-30T00:49:34;35.22;;;27.58;;
62832;SDS011;48891;49.220;6.920;2023-09-30T00:51:59;34.65;;;27.98;;
62832;SDS011;48891;49.220;6.920;2023-09-30T00:54:24;34.45;;;27.95;;
62832;SDS011;48891;49.220;6.920;2023-09-30T00:56:50;36.58;;;29.90;;
62832;SDS011;48891;49.220;6.920;2023-09-30T00:59:16;36.97;;;30.10;;
62832;SDS011;48891;49.220;6.920;2023-09-30T01:01:42;35.47;;;28.75;;
62832;SDS011;48891;49.220;6.920;2023-09-30T01:04:08;36.80;;;30.25;;
62832;SDS011;48891;49.220;6.920;2023-09-30T01:06:33;37.70;;;30.08;;
62832;SDS011;48891;49.220;6.920;2023-09-30T01:08:58;40.40;;;31.10;;
62832;SDS011;48891;49.220;6.920;2023-09-30T01:11:24;36.13;;;29.90;;
62832;SDS011;48891;49.220;6.920;2023-09-30T01:13:50;40.83;;;31.77;;
62832;SDS011;48891;49.220;6.920;2023-09-30T01:16:15;39.50;;;33.17;;
62832;SDS011;48891;49.220;6.920;2023-09-30T01:18:40;38.25;;;31.45;;
62832;SDS011;48891;49.220;6.920;2023-09-30T01:21:06;40.47;;;31.45;;
62832;SDS011;48891;49.220;6.920;2023-09-30T01:23:32;39.65;;;31.80;;
62832;SDS011;48891;49.220;6.920;2023-09-30T01:25:57;39.40;;;31.00;;
62832;SDS011;48891;49.220;6.920;2023-09-30T01:28:22;37.90;;;31.70;;
62832;SDS011;48891;49.220;6.920;2023-09-30T01:30:47;43.83;;;33.83;;
62832;SDS011;48891;49.220;6.920;2023-09-30T01:33:12;41.58;;;33.22;;
62832;SDS011;48891;49.220;6.920;2023-09-30T01:35:37;40.80;;;34.10;;
62832;SDS011;48891;49.220;6.920;2023-09-30T01:38:03;42.83;;;33.70;;
62832;SDS011;48891;49.220;6.920;2023-09-30T01:40:28;42.22;;;32.70;;
62832;SDS011;48891;49.220;6.920;2023-09-30T01:42:53;39.72;;;32.35;;
62832;SDS011;48891;49.220;6.920;2023-09-30T01:45:18;42.45;;;35.13;;
62832;SDS011;48891;49.220;6.920;2023-09-30T01:47:43;43.53;;;33.80;;
62832;SDS011;48891;49.220;6.920;2023-09-30T01:50:08;43.78;;;33.78;;
62832;SDS011;48891;49.220;6.920;2023-09-30T01:52:34;41.50;;;33.60;;
62832;SDS011;48891;49.220;6.920;2023-09-30T01:54:59;42.70;;;34.20;;
62832;SDS011;48891;49.220;6.920;2023-09-30T01:57:24;44.50;;;35.60;;
62832;SDS011;48891;49.220;6.920;2023-09-30T01:59:49;45.80;;;35.50;;
62832;SDS011;48891;49.220;6.920;2023-09-30T02:02:14;43.97;;;35.20;;
62832;SDS011;48891;49.220;6.920;2023-09-30T02:04:39;46.05;;;36.17;;
62832;SDS011;48891;49.220;6.920;2023-09-30T02:07:04;45.50;;;35.80;;
62832;SDS011;48891;49.220;6.920;2023-09-30T02:09:29;46.53;;;35.10;;
62832;SDS011;48891;49.220;6.920;2023-09-30T02:11:55;45.20;;;35.08;;
62832;SDS011;48891;49.220;6.920;2023-09-30T02:14:20;45.78;;;35.67;;
62832;SDS011;48891;49.220;6.920;2023-09-30T02:16:45;45.15;;;35.72;;
62832;SDS011;48891;49.220;6.920;2023-09-30T02:19:10;46.17;;;37.17;;
62832;SDS011;48891;49.220;6.920;2023-09-30T02:21:35;48.60;;;37.33;;
62832;SDS011;48891;49.220;6.920;2023-09-30T02:24:00;51.50;;;39.55;;
62832;SDS011;48891;49.220;6.920;2023-09-30T02:26:25;46.42;;;36.67;;
62832;SDS011;48891;49.220;6.920;2023-09-30T02:28:51;48.08;;;36.60;;
62832;SDS011;48891;49.220;6.920;2023-09-30T02:31:16;47.13;;;38.63;;
62832;SDS011;48891;49.220;6.920;2023-09-30T02:33:41;53.10;;;39.97;;
62832;SDS011;48891;49.220;6.920;2023-09-30T02:36:07;50.72;;;40.03;;
62832;SDS011;48891;49.220;6.920;2023-09-30T02:38:32;52.53;;;40.40;;
62832;SDS011;48891;49.220;6.920;2023-09-30T02:40:57;50.00;;;38.97;;
62832;SDS011;48891;49.220;6.920;2023-09-30T02:43:22;50.47;;;39.40;;
62832;SDS011;48891;49.220;6.920;2023-09-30T02:45:47;51.03;;;38.85;;
62832;SDS011;48891;49.220;6.920;2023-09-30T02:48:12;49.60;;;40.67;;
62832;SDS011;48891;49.220;6.920;2023-09-30T02:50:37;53.70;;;42.13;;
62832;SDS011;48891;49.220;6.920;2023-09-30T02:53:02;51.70;;;39.22;;
62832;SDS011;48891;49.220;6.920;2023-09-30T02:55:28;52.90;;;40.13;;
62832;SDS011;48891;49.220;6.920;2023-09-30T02:57:53;53.60;;;40.45;;
62832;SDS011;48891;49.220;6.920;2023-09-30T03:00:18;53.90;;;41.27;;
62832;SDS011;48891;49.220;6.920;2023-09-30T03:02:43;48.30;;;39.25;;
62832;SDS011;48891;49.220;6.920;2023-09-30T03:05:08;54.53;;;41.30;;
62832;SDS011;48891;49.220;6.920;2023-09-30T03:07:34;51.80;;;40.97;;
62832;SDS011;48891;49.220;6.920;2023-09-30T03:09:59;52.55;;;41.13;;
62832;SDS011;48891;49.220;6.920;2023-09-30T03:12:24;55.88;;;42.95;;
62832;SDS011;48891;49.220;6.920;2023-09-30T03:14:49;55.35;;;41.88;;
62832;SDS011;48891;49.220;6.920;2023-09-30T03:17:14;55.13;;;42.40;;
62832;SDS011;48891;49.220;6.920;2023-09-30T03:19:39;54.53;;;43.05;;
62832;SDS011;48891;49.220;6.920;2023-09-30T03:22:05;55.10;;;43.15;;
62832;SDS011;48891;49.220;6.920;2023-09-30T03:24:30;56.08;;;42.75;;
62832;SDS011;48891;49.220;6.920;2023-09-30T03:26:55;56.10;;;42.35;;
62832;SDS011;48891;49.220;6.920;2023-09-30T03:29:20;57.55;;;43.40;;
62832;SDS011;48891;49.220;6.920;2023-09-30T03:31:45;57.30;;;43.78;;
62832;SDS011;48891;49.220;6.920;2023-09-30T03:34:10;58.17;;;42.70;;
62832;SDS011;48891;49.220;6.920;2023-09-30T03:36:35;57.08;;;43.65;;
62832;SDS011;48891;49.220;6.920;2023-09-30T03:39:01;60.00;;;44.72;;
62832;SDS011;48891;49.220;6.920;2023-09-30T03:41:26;58.40;;;45.47;;
62832;SDS011;48891;49.220;6.920;2023-09-30T03:43:51;56.67;;;43.70;;
62832;SDS011;48891;49.220;6.920;2023-09-30T03:46:16;59.03;;;44.17;;
62832;SDS011;48891;49.220;6.920;2023-09-30T03:48:42;58.60;;;44.25;;
62832;SDS011;48891;49.220;6.920;2023-09-30T03:51:16;57.28;;;44.78;;
62832;SDS011;48891;49.220;6.920;2023-09-30T03:53:44;56.40;;;44.10;;
62832;SDS011;48891;49.220;6.920;2023-09-30T03:58:34;58.53;;;43.15;;
62832;SDS011;48891;49.220;6.920;2023-09-30T04:01:00;56.88;;;44.80;;
62832;SDS011;48891;49.220;6.920;2023-09-30T04:03:25;59.78;;;45.20;;
62832;SDS011;48891;49.220;6.920;2023-09-30T04:05:50;56.33;;;43.38;;
62832;SDS011;48891;49.220;6.920;2023-09-30T04:08:15;63.10;;;47.50;;
62832;SDS011;48891;49.220;6.920;2023-09-30T04:10:40;60.10;;;45.10;;
62832;SDS011;48891;49.220;6.920;2023-09-30T04:13:06;58.60;;;45.05;;
62832;SDS011;48891;49.220;6.920;2023-09-30T04:15:31;61.00;;;45.05;;
62832;SDS011;48891;49.220;6.920;2023-09-30T04:17:56;58.45;;;44.70;;
62832;SDS011;48891;49.220;6.920;2023-09-30T04:20:21;59.58;;;46.38;;
62832;SDS011;48891;49.220;6.920;2023-09-30T04:22:47;60.92;;;46.58;;
62832;SDS011;48891;49.220;6.920;2023-09-30T04:25:12;62.05;;;45.70;;
62832;SDS011;48891;49.220;6.920;2023-09-30T04:27:38;60.95;;;44.42;;
62832;SDS011;48891;49.220;6.920;2023-09-30T04:30:03;61.10;;;45.75;;
62832;SDS011;48891;49.220;6.920;2023-09-30T04:32:28;62.03;;;44.72;;
62832;SDS011;48891;49.220;6.920;2023-09-30T04:34:53;59.90;;;45.67;;
62832;SDS011;48891;49.220;6.920;2023-09-30T04:37:18;60.35;;;44.50;;
62832;SDS011;48891;49.220;6.920;2023-09-30T04:39:44;61.92;;;45.75;;
62832;SDS011;48891;49.220;6.920;2023-09-30T04:42:09;63.07;;;45.60;;
62832;SDS011;48891;49.220;6.920;2023-09-30T04:44:34;62.58;;;47.45;;
62832;SDS011;48891;49.220;6.920;2023-09-30T04:46:59;62.97;;;46.43;;
62832;SDS011;48891;49.220;6.920;2023-09-30T04:49:24;62.72;;;46.35;;
62832;SDS011;48891;49.220;6.920;2023-09-30T04:51:49;60.30;;;44.80;;
62832;SDS011;48891;49.220;6.920;2023-09-30T04:54:14;60.45;;;43.92;;
62832;SDS011;48891;49.220;6.920;2023-09-30T04:56:39;62.50;;;46.55;;
62832;SDS011;48891;49.220;6.920;2023-09-30T04:59:05;61.47;;;45.67;;
62832;SDS011;48891;49.220;6.920;2023-09-30T05:01:30;61.90;;;46.03;;
62832;SDS011;48891;49.220;6.920;2023-09-30T05:03:55;63.42;;;45.20;;
62832;SDS011;48891;49.220;6.920;2023-09-30T05:06:20;60.42;;;44.47;;
62832;SDS011;48891;49.220;6.920;2023-09-30T05:08:45;61.83;;;46.03;;
62832;SDS011;48891;49.220;6.920;2023-09-30T05:11:10;61.35;;;45.40;;
62832;SDS011;48891;49.220;6.920;2023-09-30T05:13:35;66.80;;;47.53;;
62832;SDS011;48891;49.220;6.920;2023-09-30T05:16:01;59.55;;;43.88;;
62832;SDS011;48891;49.220;6.920;2023-09-30T05:18:26;63.43;;;46.03;;
62832;SDS011;48891;49.220;6.920;2023-09-30T05:20:51;65.22;;;45.25;;
62832;SDS011;48891;49.220;6.920;2023-09-30T05:23:16;59.10;;;43.55;;
62832;SDS011;48891;49.220;6.920;2023-09-30T05:25:41;64.38;;;46.50;;
62832;SDS011;48891;49.220;6.920;2023-09-30T05:28:06;60.50;;;45.72;;
62832;SDS011;48891;49.220;6.920;2023-09-30T05:30:32;64.53;;;45.38;;
62832;SDS011;48891;49.220;6.920;2023-09-30T05:32:58;62.85;;;45.75;;
62832;SDS011;48891;49.220;6.920;2023-09-30T05:35:23;60.80;;;44.30;;
62832;SDS011;48891;49.220;6.920;2023-09-30T05:37:48;60.00;;;44.95;;
62832;SDS011;48891;49.220;6.920;2023-09-30T05:40:13;60.53;;;44.28;;
62832;SDS011;48891;49.220;6.920;2023-09-30T05:42:38;63.70;;;45.47;;
62832;SDS011;48891;49.220;6.920;2023-09-30T05:45:03;64.80;;;45.60;;
62832;SDS011;48891;49.220;6.920;2023-09-30T05:47:29;59.88;;;42.78;;
62832;SDS011;48891;49.220;6.920;2023-09-30T05:49:54;62.65;;;45.25;;
62832;SDS011;48891;49.220;6.920;2023-09-30T05:52:19;60.55;;;45.47;;
62832;SDS011;48891;49.220;6.920;2023-09-30T05:54:44;60.97;;;44.97;;
62832;SDS011;48891;49.220;6.920;2023-09-30T05:57:09;64.97;;;46.35;;
62832;SDS011;48891;49.220;6.920;2023-09-30T05:59:34;59.97;;;44.13;;
62832;SDS011;48891;49.220;6.920;2023-09-30T06:01:59;60.53;;;45.35;;
62832;SDS011;48891;49.220;6.920;2023-09-30T06:04:24;65.07;;;45.17;;
62832;SDS011;48891;49.220;6.920;2023-09-30T06:06:49;58.00;;;44.08;;
62832;SDS011;48891;49.220;6.920;2023-09-30T06:09:15;60.08;;;43.22;;
62832;SDS011;48891;49.220;6.920;2023-09-30T06:11:40;60.75;;;45.42;;
62832;SDS011;48891;49.220;6.920;2023-09-30T06:14:05;61.00;;;44.07;;
62832;SDS011;48891;49.220;6.920;2023-09-30T06:16:30;63.22;;;44.97;;
62832;SDS011;48891;49.220;6.920;2023-09-30T06:18:55;59.38;;;43.30;;
62832;SDS011;48891;49.220;6.920;2023-09-30T06:21:21;57.58;;;42.40;;
62832;SDS011;48891;49.220;6.920;2023-09-30T06:23:49;61.08;;;42.78;;
62832;SDS011;48891;49.220;6.920;2023-09-30T06:26:14;62.13;;;44.08;;
62832;SDS011;48891;49.220;6.920;2023-09-30T06:28:39;63.03;;;43.67;;
62832;SDS011;48891;49.220;6.920;2023-09-30T06:31:05;61.38;;;43.78;;
62832;SDS011;48891;49.220;6.920;2023-09-30T06:33:30;61.47;;;43.40;;
62832;SDS011;48891;49.220;6.920;2023-09-30T06:35:55;58.35;;;42.03;;
62832;SDS011;48891;49.220;6.920;2023-09-30T06:38:21;61.07;;;43.43;;
62832;SDS011;48891;49.220;6.920;2023-09-30T06:40:46;63.27;;;43.43;;
62832;SDS011;48891;49.220;6.920;2023-09-30T06:43:11;57.72;;;42.28;;
62832;SDS011;48891;49.220;6.920;2023-09-30T06:45:36;58.63;;;43.35;;
62832;SDS011;48891;49.220;6.920;2023-09-30T06:48:02;57.95;;;42.58;;
62832;SDS011;48891;49.220;6.920;2023-09-30T06:50:27;59.15;;;43.05;;
62832;SDS011;48891;49.220;6.920;2023-09-30T06:52:52;60.65;;;43.60;;
62832;SDS011;48891;49.220;6.920;2023-09-30T06:55:17;57.85;;;43.13;;
62832;SDS011;48891;49.220;6.920;2023-09-30T06:57:42;57.45;;;41.33;;
62832;SDS011;48891;49.220;6.920;2023-09-30T07:00:11;55.95;;;41.13;;
62832;SDS011;48891;49.220;6.920;2023-09-30T07:02:37;59.40;;;43.35;;
62832;SDS011;48891;49.220;6.920;2023-09-30T07:05:09;54.45;;;40.45;;
62832;SDS011;48891;49.220;6.920;2023-09-30T07:07:34;60.80;;;43.47;;
62832;SDS011;48891;49.220;6.920;2023-09-30T07:09:59;59.17;;;41.70;;
62832;SDS011;48891;49.220;6.920;2023-09-30T07:12:24;59.00;;;43.17;;
62832;SDS011;48891;49.220;6.920;2023-09-30T07:14:50;59.50;;;42.30;;
62832;SDS011;48891;49.220;6.920;2023-09-30T07:17:15;56.75;;;42.08;;
62832;SDS011;48891;49.220;6.920;2023-09-30T07:19:40;59.60;;;42.13;;
62832;SDS011;48891;49.220;6.920;2023-09-30T07:22:05;58.20;;;40.70;;
62832;SDS011;48891;49.220;6.920;2023-09-30T07:24:30;60.72;;;41.90;;
62832;SDS011;48891;49.220;6.920;2023-09-30T07:26:55;57.10;;;40.60;;
62832;SDS011;48891;49.220;6.920;2023-09-30T07:29:20;56.95;;;41.53;;
62832;SDS011;48891;49.220;6.920;2023-09-30T07:31:45;59.30;;;42.70;;
62832;SDS011;48891;49.220;6.920;2023-09-30T07:34:11;57.80;;;41.55;;
62832;SDS011;48891;49.220;6.920;2023-09-30T07:36:36;57.60;;;40.88;;
62832;SDS011;48891;49.220;6.920;2023-09-30T07:39:01;61.05;;;42.17;;
62832;SDS011;48891;49.220;6.920;2023-09-30T07:41:26;60.67;;;43.00;;
62832;SDS011;48891;49.220;6.920;2023-09-30T07:43:51;55.15;;;39.85;;
62832;SDS011;48891;49.220;6.920;2023-09-30T07:46:17;58.10;;;41.03;;
62832;SDS011;48891;49.220;6.920;2023-09-30T07:48:42;56.67;;;39.03;;
62832;SDS011;48891;49.220;6.920;2023-09-30T07:51:07;55.88;;;40.53;;
62832;SDS011;48891;49.220;6.920;2023-09-30T07:53:32;55.90;;;40.47;;
62832;SDS011;48891;49.220;6.920;2023-09-30T07:55:57;59.53;;;41.75;;
62832;SDS011;48891;49.220;6.920;2023-09-30T07:58:22;54.65;;;40.17;;
62832;SDS011;48891;49.220;6.920;2023-09-30T08:00:47;54.50;;;38.92;;
62832;SDS011;48891;49.220;6.920;2023-09-30T08:03:12;56.55;;;40.03;;
62832;SDS011;48891;49.220;6.920;2023-09-30T08:05:38;56.57;;;39.83;;
62832;SDS011;48891;49.220;6.920;2023-09-30T08:08:03;56.57;;;39.83;;
62832;SDS011;48891;49.220;6.920;2023-09-30T08:10:28;54.83;;;38.65;;
62832;SDS011;48891;49.220;6.920;2023-09-30T08:12:53;55.33;;;39.42;;
62832;SDS011;48891;49.220;6.920;2023-09-30T08:15:18;54.60;;;39.17;;
62832;SDS011;48891;49.220;6.920;2023-09-30T08:17:44;55.38;;;39.47;;
62832;SDS011;48891;49.220;6.920;2023-09-30T08:20:09;56.25;;;40.45;;
62832;SDS011;48891;49.220;6.920;2023-09-30T08:22:34;57.58;;;39.95;;
62832;SDS011;48891;49.220;6.920;2023-09-30T08:24:59;54.53;;;38.55;;
62832;SDS011;48891;49.220;6.920;2023-09-30T08:27:25;55.30;;;37.45;;
62832;SDS011;48891;49.220;6.920;2023-09-30T08:29:50;56.78;;;39.97;;
62832;SDS011;48891;49.220;6.920;2023-09-30T08:32:16;53.22;;;37.75;;
62832;SDS011;48891;49.220;6.920;2023-09-30T08:34:41;51.50;;;37.13;;
62832;SDS011;48891;49.220;6.920;2023-09-30T08:37:06;53.08;;;38.90;;
62832;SDS011;48891;49.220;6.920;2023-09-30T08:39:31;52.58;;;38.78;;
62832;SDS011;48891;49.220;6.920;2023-09-30T08:41:56;52.88;;;37.25;;
62832;SDS011;48891;49.220;6.920;2023-09-30T08:44:21;53.20;;;37.67;;
62832;SDS011;48891;49.220;6.920;2023-09-30T08:46:47;51.97;;;37.03;;
62832;SDS011;48891;49.220;6.920;2023-09-30T08:49:12;51.33;;;37.47;;
62832;SDS011;48891;49.220;6.920;2023-09-30T08:51:38;50.78;;;37.10;;
62832;SDS011;48891;49.220;6.920;2023-09-30T08:54:03;52.63;;;37.53;;
62832;SDS011;48891;49.220;6.920;2023-09-30T08:56:29;54.20;;;38.22;;
62832;SDS011;48891;49.220;6.920;2023-09-30T08:58:55;54.65;;;37.83;;
62832;SDS011;48891;49.220;6.920;2023-09-30T09:01:21;52.85;;;37.95;;
62832;SDS011;48891;49.220;6.920;2023-09-30T09:03:47;49.40;;;35.58;;
62832;SDS011;48891;49.220;6.920;2023-09-30T09:06:12;48.92;;;36.65;;
62832;SDS011;48891;49.220;6.920;2023-09-30T09:08:37;52.58;;;36.03;;
62832;SDS011;48891;49.220;6.920;2023-09-30T09:11:02;51.45;;;37.10;;
62832;SDS011;48891;49.220;6.920;2023-09-30T09:13:28;51.83;;;36.47;;
62832;SDS011;48891;49.220;6.920;2023-09-30T09:16:08;47.63;;;35.27;;
62832;SDS011;48891;49.220;6.920;2023-09-30T09:18:34;50.28;;;35.47;;
62832;SDS011;48891;49.220;6.920;2023-09-30T09:21:12;51.60;;;36.85;;
62832;SDS011;48891;49.220;6.920;2023-09-30T09:23:41;48.83;;;35.58;;
62832;SDS011;48891;49.220;6.920;2023-09-30T09:26:06;50.05;;;36.78;;
62832;SDS011;48891;49.220;6.920;2023-09-30T09:28:34;51.85;;;36.25;;
62832;SDS011;48891;49.220;6.920;2023-09-30T09:30:59;51.92;;;36.67;;
62832;SDS011;48891;49.220;6.920;2023-09-30T09:33:31;51.25;;;35.33;;
62832;SDS011;48891;49.220;6.920;2023-09-30T09:35:59;48.17;;;35.63;;
62832;SDS011;48891;49.220;6.920;2023-09-30T09:38:24;48.53;;;34.67;;
62832;SDS011;48891;49.220;6.920;2023-09-30T09:40:49;50.63;;;34.45;;
62832;SDS011;48891;49.220;6.920;2023-09-30T09:43:15;50.75;;;34.63;;
62832;SDS011;48891;49.220;6.920;2023-09-30T09:45:40;49.90;;;34.90;;
62832;SDS011;48891;49.220;6.920;2023-09-30T09:48:05;48.33;;;34.47;;
62832;SDS011;48891;49.220;6.920;2023-09-30T09:50:30;44.95;;;34.08;;
62832;SDS011;48891;49.220;6.920;2023-09-30T09:52:56;46.55;;;35.08;;
62832;SDS011;48891;49.220;6.920;2023-09-30T09:55:22;48.20;;;34.88;;
62832;SDS011;48891;49.220;6.920;2023-09-30T09:57:48;49.28;;;34.75;;
62832;SDS011;48891;49.220;6.920;2023-09-30T10:00:15;45.28;;;33.58;;
62832;SDS011;48891;49.220;6.920;2023-09-30T10:02:40;47.17;;;34.33;;
62832;SDS011;48891;49.220;6.920;2023-09-30T10:05:06;46.20;;;34.05;;
62832;SDS011;48891;49.220;6.920;2023-09-30T10:07:33;46.05;;;33.45;;
62832;SDS011;48891;49.220;6.920;2023-09-30T10:10:00;45.83;;;33.63;;
62832;SDS011;48891;49.220;6.920;2023-09-30T10:12:26;48.95;;;34.20;;
62832;SDS011;48891;49.220;6.920;2023-09-30T10:14:51;48.03;;;34.78;;
62832;SDS011;48891;49.220;6.920;2023-09-30T10:17:17;45.40;;;32.88;;
62832;SDS011;48891;49.220;6.920;2023-09-30T10:22:25;47.20;;;34.17;;
62832;SDS011;48891;49.220;6.920;2023-09-30T10:24:51;49.40;;;34.72;;
62832;SDS011;48891;49.220;6.920;2023-09-30T10:29:56;45.03;;;32.03;;
62832;SDS011;48891;49.220;6.920;2023-09-30T10:32:22;45.70;;;34.05;;
62832;SDS011;48891;49.220;6.920;2023-09-30T10:34:47;45.13;;;33.80;;
62832;SDS011;48891;49.220;6.920;2023-09-30T10:37:19;47.20;;;33.95;;
62832;SDS011;48891;49.220;6.920;2023-09-30T10:39:57;45.33;;;32.08;;
62832;SDS011;48891;49.220;6.920;2023-09-30T10:45:07;47.35;;;34.55;;
62832;SDS011;48891;49.220;6.920;2023-09-30T10:47:35;42.25;;;31.63;;
62832;SDS011;48891;49.220;6.920;2023-09-30T10:52:25;46.10;;;32.67;;
62832;SDS011;48891;49.220;6.920;2023-09-30T10:54:51;47.35;;;33.50;;
62832;SDS011;48891;49.220;6.920;2023-09-30T10:57:37;44.42;;;32.38;;
62832;SDS011;48891;49.220;6.920;2023-09-30T11:00:10;42.03;;;31.55;;
62832;SDS011;48891;49.220;6.920;2023-09-30T11:02:46;43.83;;;31.23;;
62832;SDS011;48891;49.220;6.920;2023-09-30T11:05:12;46.35;;;33.15;;
62832;SDS011;48891;49.220;6.920;2023-09-30T11:07:37;43.53;;;31.55;;
62832;SDS011;48891;49.220;6.920;2023-09-30T11:10:04;44.22;;;32.08;;
62832;SDS011;48891;49.220;6.920;2023-09-30T11:12:29;43.70;;;31.88;;
62832;SDS011;48891;49.220;6.920;2023-09-30T11:15:01;45.42;;;32.15;;
62832;SDS011;48891;49.220;6.920;2023-09-30T11:17:27;45.20;;;33.08;;
62832;SDS011;48891;49.220;6.920;2023-09-30T11:19:52;46.80;;;32.78;;
62832;SDS011;48891;49.220;6.920;2023-09-30T11:22:17;43.85;;;31.65;;
62832;SDS011;48891;49.220;6.920;2023-09-30T11:24:42;43.97;;;31.57;;
62832;SDS011;48891;49.220;6.920;2023-09-30T11:27:08;44.25;;;31.98;;
62832;SDS011;48891;49.220;6.920;2023-09-30T11:29:33;42.63;;;31.52;;
62832;SDS011;48891;49.220;6.920;2023-09-30T11:31:58;44.45;;;31.75;;
62832;SDS011;48891;49.220;6.920;2023-09-30T11:34:35;42.10;;;31.35;;
62832;SDS011;48891;49.220;6.920;2023-09-30T11:37:01;45.08;;;32.75;;
62832;SDS011;48891;49.220;6.920;2023-09-30T11:39:27;43.33;;;31.15;;
62832;SDS011;48891;49.220;6.920;2023-09-30T11:41:53;43.25;;;30.42;;
62832;SDS011;48891;49.220;6.920;2023-09-30T11:44:18;43.92;;;31.52;;
62832;SDS011;48891;49.220;6.920;2023-09-30T11:47:04;45.00;;;32.53;;
62832;SDS011;48891;49.220;6.920;2023-09-30T11:49:35;42.42;;;30.83;;
62832;SDS011;48891;49.220;6.920;2023-09-30T11:52:05;43.33;;;30.40;;
62832;SDS011;48891;49.220;6.920;2023-09-30T11:54:34;42.72;;;30.85;;
62832;SDS011;48891;49.220;6.920;2023-09-30T11:57:00;43.50;;;30.83;;
62832;SDS011;48891;49.220;6.920;2023-09-30T11:59:26;41.15;;;30.02;;
62832;SDS011;48891;49.220;6.920;2023-09-30T12:01:51;43.17;;;30.23;;
62832;SDS011;48891;49.220;6.920;2023-09-30T12:04:16;41.50;;;30.50;;
62832;SDS011;48891;49.220;6.920;2023-09-30T12:06:41;45.05;;;31.85;;
62832;SDS011;48891;49.220;6.920;2023-09-30T12:09:06;40.85;;;30.85;;
62832;SDS011;48891;49.220;6.920;2023-09-30T12:11:31;40.83;;;29.02;;
62832;SDS011;48891;49.220;6.920;2023-09-30T12:13:56;42.03;;;30.60;;
62832;SDS011;48891;49.220;6.920;2023-09-30T12:16:22;42.15;;;31.45;;
62832;SDS011;48891;49.220;6.920;2023-09-30T12:18:47;41.35;;;29.02;;
62832;SDS011;48891;49.220;6.920;2023-09-30T12:21:12;41.28;;;31.13;;
62832;SDS011;48891;49.220;6.920;2023-09-30T12:23:37;38.72;;;28.33;;
62832;SDS011;48891;49.220;6.920;2023-09-30T12:26:03;40.03;;;28.75;;
62832;SDS011;48891;49.220;6.920;2023-09-30T12:28:28;42.90;;;30.00;;
62832;SDS011;48891;49.220;6.920;2023-09-30T12:30:53;42.60;;;31.83;;
62832;SDS011;48891;49.220;6.920;2023-09-30T12:33:18;40.63;;;29.13;;
62832;SDS011;48891;49.220;6.920;2023-09-30T12:35:43;42.40;;;31.33;;
62832;SDS011;48891;49.220;6.920;2023-09-30T12:38:08;38.65;;;29.85;;
62832;SDS011;48891;49.220;6.920;2023-09-30T12:40:33;41.35;;;30.23;;
62832;SDS011;48891;49.220;6.920;2023-09-30T12:42:58;41.30;;;29.65;;
62832;SDS011;48891;49.220;6.920;2023-09-30T12:45:24;39.45;;;28.75;;
62832;SDS011;48891;49.220;6.920;2023-09-30T12:47:49;40.78;;;29.75;;
62832;SDS011;48891;49.220;6.920;2023-09-30T12:50:14;41.05;;;30.35;;
62832;SDS011;48891;49.220;6.920;2023-09-30T12:52:39;40.33;;;29.58;;
62832;SDS011;48891;49.220;6.920;2023-09-30T12:55:04;39.10;;;29.20;;
62832;SDS011;48891;49.220;6.920;2023-09-30T12:57:30;39.22;;;29.25;;
62832;SDS011;48891;49.220;6.920;2023-09-30T12:59:55;38.92;;;29.20;;
62832;SDS011;48891;49.220;6.920;2023-09-30T13:02:20;38.90;;;29.60;;
62832;SDS011;48891;49.220;6.920;2023-09-30T13:04:46;37.15;;;28.80;;
62832;SDS011;48891;49.220;6.920;2023-09-30T13:07:11;40.63;;;29.45;;
62832;SDS011;48891;49.220;6.920;2023-09-30T13:09:38;36.70;;;27.58;;
62832;SDS011;48891;49.220;6.920;2023-09-30T13:12:03;36.95;;;28.05;;
62832;SDS011;48891;49.220;6.920;2023-09-30T13:14:28;41.57;;;29.17;;
62832;SDS011;48891;49.220;6.920;2023-09-30T13:16:53;39.83;;;28.63;;
62832;SDS011;48891;49.220;6.920;2023-09-30T13:19:18;39.75;;;28.73;;
62832;SDS011;48891;49.220;6.920;2023-09-30T13:21:43;40.55;;;29.13;;
62832;SDS011;48891;49.220;6.920;2023-09-30T13:24:08;41.35;;;29.17;;
62832;SDS011;48891;49.220;6.920;2023-09-30T13:26:34;38.35;;;27.65;;
62832;SDS011;48891;49.220;6.920;2023-09-30T13:28:59;37.47;;;28.35;;
62832;SDS011;48891;49.220;6.920;2023-09-30T13:31:24;38.75;;;28.80;;
62832;SDS011;48891;49.220;6.920;2023-09-30T13:33:49;37.22;;;28.08;;
62832;SDS011;48891;49.220;6.920;2023-09-30T13:36:14;40.17;;;30.17;;
62832;SDS011;48891;49.220;6.920;2023-09-30T13:38:39;38.33;;;27.67;;
62832;SDS011;48891;49.220;6.920;2023-09-30T13:41:04;36.70;;;27.20;;
62832;SDS011;48891;49.220;6.920;2023-09-30T13:43:29;39.83;;;28.75;;
62832;SDS011;48891;49.220;6.920;2023-09-30T13:45:54;38.05;;;27.45;;
62832;SDS011;48891;49.220;6.920;2023-09-30T13:48:20;38.13;;;27.50;;
62832;SDS011;48891;49.220;6.920;2023-09-30T13:50:45;38.90;;;28.55;;
62832;SDS011;48891;49.220;6.920;2023-09-30T13:53:10;38.08;;;27.63;;
62832;SDS011;48891;49.220;6.920;2023-09-30T13:55:37;35.85;;;27.33;;
62832;SDS011;48891;49.220;6.920;2023-09-30T13:58:03;37.87;;;27.97;;
62832;SDS011;48891;49.220;6.920;2023-09-30T14:00:28;37.97;;;26.85;;
62832;SDS011;48891;49.220;6.920;2023-09-30T14:02:53;35.83;;;26.57;;
62832;SDS011;48891;49.220;6.920;2023-09-30T14:05:18;34.72;;;26.98;;
62832;SDS011;48891;49.220;6.920;2023-09-30T14:07:44;37.80;;;27.75;;
62832;SDS011;48891;49.220;6.920;2023-09-30T14:10:09;36.22;;;26.33;;
62832;SDS011;48891;49.220;6.920;2023-09-30T14:12:34;37.63;;;27.30;;
62832;SDS011;48891;49.220;6.920;2023-09-30T14:14:59;35.75;;;26.48;;
62832;SDS011;48891;49.220;6.920;2023-09-30T14:17:24;35.53;;;26.88;;
62832;SDS011;48891;49.220;6.920;2023-09-30T14:19:49;37.92;;;27.40;;
62832;SDS011;48891;49.220;6.920;2023-09-30T14:22:14;37.55;;;27.27;;
62832;SDS011;48891;49.220;6.920;2023-09-30T14:24:40;35.70;;;26.63;;